createdAt,value
2019-05-05T00:01:17.451Z,19.86
2019-05-05T00:04:04.401Z,19.86
2019-05-05T00:06:31.087Z,19.87
2019-05-05T00:08:57.849Z,19.85
2019-05-05T00:11:29.246Z,19.86
2019-05-05T00:14:04.725Z,19.86
2019-05-05T00:16:45.206Z,19.86
2019-05-05T00:19:11.995Z,19.85
2019-05-05T00:21:38.774Z,19.87
2019-05-05T00:24:05.569Z,19.86
2019-05-05T00:26:32.334Z,19.86
2019-05-05T00:28:59.126Z,19.85
2019-05-05T00:31:25.920Z,19.86
2019-05-05T00:33:54.398Z,19.85
2019-05-05T00:36:21.356Z,19.86
2019-05-05T00:38:48.125Z,19.86
2019-05-05T00:41:14.991Z,19.85
2019-05-05T00:43:41.784Z,19.84
2019-05-05T00:46:16.598Z,19.86
2019-05-05T00:48:45.320Z,19.85
2019-05-05T00:51:12.085Z,19.85
2019-05-05T00:53:38.896Z,19.85
2019-05-05T00:56:05.665Z,19.85
2019-05-05T00:58:35.296Z,19.84
2019-05-05T01:01:09.982Z,19.84
2019-05-05T01:03:36.777Z,19.85
2019-05-05T01:06:05.186Z,19.85
2019-05-05T01:08:31.969Z,19.84
2019-05-05T01:10:58.760Z,19.84
2019-05-05T01:13:25.524Z,19.84
2019-05-05T01:15:54.085Z,19.84
2019-05-05T01:18:21.002Z,19.84
2019-05-05T01:20:47.816Z,19.84
2019-05-05T01:23:15.108Z,19.84
2019-05-05T01:25:41.962Z,19.85
2019-05-05T01:28:08.764Z,19.83
2019-05-05T01:30:37.184Z,19.83
2019-05-05T01:33:11.676Z,19.84
2019-05-05T01:35:38.472Z,19.84
2019-05-05T01:38:15.918Z,19.84
2019-05-05T01:40:47.000Z,19.83
2019-05-05T01:43:14.649Z,19.84
2019-05-05T01:45:41.789Z,19.82
2019-05-05T01:48:08.580Z,19.83
2019-05-05T01:50:35.344Z,19.83
2019-05-05T01:53:04.611Z,19.84
2019-05-05T01:55:30.910Z,19.83
2019-05-05T01:57:57.693Z,19.84
2019-05-05T02:00:25.371Z,19.83
2019-05-05T02:02:52.352Z,19.83
2019-05-05T02:05:19.136Z,19.83
2019-05-05T02:07:45.912Z,19.83
2019-05-05T02:10:15.046Z,19.83
2019-05-05T02:12:41.180Z,19.83
2019-05-05T02:15:07.985Z,19.82
2019-05-05T02:17:35.243Z,19.83
2019-05-05T02:20:02.127Z,19.83
2019-05-05T02:22:28.895Z,19.83
2019-05-05T02:24:55.660Z,19.83
2019-05-05T02:27:22.443Z,19.83
2019-05-05T02:29:50.876Z,19.83
2019-05-05T02:32:25.901Z,19.82
2019-05-05T02:34:56.349Z,19.81
2019-05-05T02:37:25.609Z,19.80
2019-05-05T02:39:58.863Z,19.83
2019-05-05T02:42:19.945Z,19.82
2019-05-05T02:44:46.717Z,19.82
2019-05-05T02:47:18.524Z,19.83
2019-05-05T02:49:45.614Z,19.82
2019-05-05T02:52:14.906Z,19.83
2019-05-05T02:54:41.043Z,19.82
2019-05-05T02:57:07.815Z,19.83
2019-05-05T02:59:38.924Z,19.81
2019-05-05T03:02:07.345Z,19.81
2019-05-05T03:04:34.133Z,19.81
2019-05-05T03:07:00.963Z,19.81
2019-05-05T03:09:27.767Z,19.81
2019-05-05T03:11:54.596Z,19.81
2019-05-05T03:14:23.547Z,19.80
2019-05-05T03:16:49.912Z,19.80
2019-05-05T03:19:16.672Z,19.80
2019-05-05T03:21:44.145Z,19.80
2019-05-05T03:24:11.120Z,19.80
2019-05-05T03:26:37.911Z,19.80
2019-05-05T03:29:06.346Z,19.81
2019-05-05T03:31:35.191Z,19.81
2019-05-05T03:34:01.641Z,19.80
2019-05-05T03:36:28.496Z,19.80
2019-05-05T03:38:55.750Z,19.80
2019-05-05T03:41:26.835Z,19.80
2019-05-05T03:44:04.856Z,19.80
2019-05-05T03:46:31.708Z,19.80
2019-05-05T03:48:58.490Z,19.80
2019-05-05T03:51:25.270Z,19.80
2019-05-05T03:53:53.545Z,19.80
2019-05-05T03:56:20.400Z,19.80
2019-05-05T03:58:47.192Z,19.80
2019-05-05T04:01:14.516Z,19.80
2019-05-05T04:03:43.440Z,19.79
2019-05-05T04:06:10.058Z,19.80
2019-05-05T04:08:36.856Z,19.80
2019-05-05T04:11:04.027Z,19.80
2019-05-05T04:13:30.873Z,19.79
2019-05-05T04:16:08.234Z,19.79
2019-05-05T04:18:36.659Z,19.78
2019-05-05T04:21:03.968Z,19.79
2019-05-05T04:23:30.873Z,19.78
2019-05-05T04:25:57.656Z,19.79
2019-05-05T04:28:24.437Z,19.78
2019-05-05T04:30:51.238Z,19.79
2019-05-05T04:33:18.026Z,19.78
2019-05-05T04:35:45.037Z,19.78
2019-05-05T04:38:13.385Z,19.79
2019-05-05T04:40:40.334Z,19.78
2019-05-05T04:43:07.118Z,19.78
2019-05-05T04:45:34.702Z,19.78
2019-05-05T04:48:09.452Z,19.78
2019-05-05T04:50:44.080Z,19.78
2019-05-05T04:53:13.518Z,19.78
2019-05-05T04:55:40.470Z,19.78
2019-05-05T04:58:07.268Z,19.78
2019-05-05T05:00:34.272Z,19.78
2019-05-05T05:03:04.472Z,19.05
2019-05-05T05:05:33.739Z,19.77
2019-05-05T05:08:00.590Z,19.76
2019-05-05T05:10:27.366Z,19.77
2019-05-05T05:12:54.404Z,19.77
2019-05-05T05:15:21.182Z,19.76
2019-05-05T05:17:55.734Z,19.77
2019-05-05T05:20:24.540Z,19.77
2019-05-05T05:22:50.993Z,19.77
2019-05-05T05:25:17.777Z,19.77
2019-05-05T05:27:44.544Z,19.77
2019-05-05T05:30:13.559Z,19.78
2019-05-05T05:32:39.951Z,19.76
2019-05-05T05:35:06.802Z,19.76
2019-05-05T05:37:34.307Z,19.77
2019-05-05T05:40:03.886Z,19.76
2019-05-05T05:42:30.888Z,19.75
2019-05-05T05:44:59.298Z,19.76
2019-05-05T05:47:31.040Z,19.76
2019-05-05T05:49:59.462Z,19.75
2019-05-05T05:52:26.244Z,19.75
2019-05-05T05:54:53.493Z,19.77
2019-05-05T05:57:20.462Z,19.77
2019-05-05T05:59:47.256Z,19.76
2019-05-05T06:02:15.655Z,19.74
2019-05-05T06:04:44.453Z,19.76
2019-05-05T06:07:11.068Z,19.76
2019-05-05T06:09:37.880Z,19.76
2019-05-05T06:12:04.650Z,19.75
2019-05-05T06:14:31.414Z,19.75
2019-05-05T06:16:58.190Z,19.74
2019-05-05T06:19:24.980Z,19.75
2019-05-05T06:21:51.754Z,19.75
2019-05-05T06:24:18.530Z,19.76
2019-05-05T06:26:45.333Z,19.76
2019-05-05T06:29:12.096Z,19.74
2019-05-05T06:31:38.888Z,19.74
2019-05-05T06:34:05.649Z,19.76
2019-05-05T06:36:34.058Z,19.75
2019-05-05T06:39:00.983Z,19.76
2019-05-05T06:41:34.079Z,19.74
2019-05-05T06:44:14.256Z,19.74
2019-05-05T06:46:59.183Z,19.74
2019-05-05T06:49:25.967Z,19.78
2019-05-05T06:51:54.674Z,19.78
2019-05-05T06:54:21.233Z,18.85
2019-05-05T06:56:48.007Z,16.77
2019-05-05T06:59:14.796Z,16.07
2019-05-05T07:01:41.591Z,15.83
2019-05-05T07:04:08.378Z,15.55
2019-05-05T07:06:35.150Z,15.25
2019-05-05T07:09:01.941Z,15.13
2019-05-05T07:11:28.714Z,15.19
2019-05-05T07:13:55.485Z,16.90
2019-05-05T07:16:24.165Z,17.82
2019-05-05T07:18:50.780Z,18.23
2019-05-05T07:21:17.544Z,18.46
2019-05-05T07:23:44.708Z,18.61
2019-05-05T07:26:11.531Z,18.70
2019-05-05T07:28:38.296Z,18.77
2019-05-05T07:31:05.141Z,18.83
2019-05-05T07:33:31.941Z,18.88
2019-05-05T07:36:15.670Z,18.90
2019-05-05T07:38:44.210Z,18.94
2019-05-05T07:41:11.102Z,18.98
2019-05-05T07:43:37.884Z,19.00
2019-05-05T07:46:04.661Z,19.03
2019-05-05T07:48:33.474Z,19.06
2019-05-05T07:51:02.838Z,19.08
2019-05-05T07:53:28.458Z,19.09
2019-05-05T07:55:55.241Z,19.10
2019-05-05T07:58:24.127Z,19.11
2019-05-05T08:00:50.529Z,19.14
2019-05-05T08:03:17.295Z,19.15
2019-05-05T08:05:44.325Z,19.17
2019-05-05T08:08:11.130Z,19.18
2019-05-05T08:10:37.917Z,19.20
2019-05-05T08:13:05.013Z,19.22
2019-05-05T08:15:31.858Z,19.23
2019-05-05T08:18:09.198Z,19.23
2019-05-05T08:20:44.375Z,19.24
2019-05-05T08:23:28.223Z,19.26
2019-05-05T08:25:45.250Z,19.27
2019-05-05T08:28:19.152Z,19.23
2019-05-05T08:30:50.415Z,19.13
2019-05-05T08:33:17.199Z,19.10
2019-05-05T08:35:44.898Z,19.11
2019-05-05T08:38:13.666Z,19.11
2019-05-05T08:40:40.314Z,19.12
2019-05-05T08:43:07.093Z,19.14
2019-05-05T08:45:34.993Z,19.15
2019-05-05T08:48:02.023Z,19.18
2019-05-05T08:50:28.818Z,19.18
2019-05-05T08:52:55.606Z,19.19
2019-05-05T08:55:24.442Z,19.18
2019-05-05T08:57:50.899Z,19.19
2019-05-05T09:00:17.690Z,19.19
2019-05-05T09:02:44.466Z,19.20
2019-05-05T09:05:11.242Z,19.20
2019-05-05T09:07:38.013Z,19.22
2019-05-05T09:10:04.820Z,19.24
2019-05-05T09:12:33.773Z,19.28
2019-05-05T09:15:00.122Z,19.34
2019-05-05T09:17:28.073Z,19.32
2019-05-05T09:19:54.931Z,19.31
2019-05-05T09:22:21.712Z,19.31
2019-05-05T09:25:06.343Z,19.32
2019-05-05T09:27:37.676Z,19.32
2019-05-05T09:30:05.030Z,19.32
2019-05-05T09:32:31.820Z,19.31
2019-05-05T09:34:58.599Z,19.32
2019-05-05T09:37:25.625Z,19.31
2019-05-05T09:39:54.109Z,19.32
2019-05-05T09:42:21.054Z,19.33
2019-05-05T09:44:47.829Z,19.34
2019-05-05T09:47:14.618Z,19.34
2019-05-05T09:49:41.399Z,19.35
2019-05-05T09:52:08.295Z,19.35
2019-05-05T09:54:35.074Z,19.36
2019-05-05T09:57:04.249Z,19.35
2019-05-05T09:59:30.382Z,19.36
2019-05-05T10:01:57.240Z,19.36
2019-05-05T10:04:25.176Z,19.36
2019-05-05T10:06:51.957Z,19.36
2019-05-05T10:09:18.752Z,19.36
2019-05-05T10:11:45.522Z,19.36
2019-05-05T10:14:14.190Z,19.37
2019-05-05T10:16:40.782Z,19.37
2019-05-05T10:19:07.640Z,19.37
2019-05-05T10:21:34.414Z,19.37
2019-05-05T10:24:05.967Z,19.38
2019-05-05T10:26:34.451Z,19.39
2019-05-05T10:29:01.333Z,19.40
2019-05-05T10:31:28.166Z,19.38
2019-05-05T10:33:56.583Z,19.38
2019-05-05T10:36:24.462Z,19.39
2019-05-05T10:38:53.800Z,19.39
2019-05-05T10:41:20.650Z,19.41
2019-05-05T10:43:47.463Z,19.41
2019-05-05T10:46:14.450Z,19.41
2019-05-05T10:48:41.272Z,19.42
2019-05-05T10:51:08.059Z,19.42
2019-05-05T10:53:34.839Z,19.42
2019-05-05T10:56:01.625Z,19.43
2019-05-05T10:58:28.402Z,19.42
2019-05-05T11:00:56.817Z,19.42
2019-05-05T11:03:23.828Z,19.41
2019-05-05T11:05:50.632Z,19.42
2019-05-05T11:08:17.405Z,18.71
2019-05-05T11:10:45.013Z,19.41
2019-05-05T11:13:11.970Z,19.41
2019-05-05T11:15:38.811Z,19.41
2019-05-05T11:18:05.856Z,19.41
2019-05-05T11:20:33.991Z,19.41
2019-05-05T11:23:00.978Z,19.41
2019-05-05T11:25:27.762Z,19.40
2019-05-05T11:27:54.815Z,19.41
2019-05-05T11:30:26.731Z,19.41
2019-05-05T11:33:09.660Z,19.40
2019-05-05T11:35:47.469Z,19.40
2019-05-05T11:38:14.288Z,19.40
2019-05-05T11:40:41.132Z,19.40
2019-05-05T11:43:07.901Z,19.40
2019-05-05T11:45:34.684Z,19.41
2019-05-05T11:48:01.458Z,19.41
2019-05-05T11:50:28.255Z,18.13
2019-05-05T11:52:55.029Z,19.41
2019-05-05T11:55:21.849Z,19.42
2019-05-05T11:57:48.613Z,19.42
2019-05-05T12:00:15.406Z,19.40
2019-05-05T12:02:43.957Z,19.41
2019-05-05T12:05:10.861Z,19.41
2019-05-05T12:07:37.678Z,19.40
2019-05-05T12:10:04.546Z,19.41
2019-05-05T12:12:31.352Z,19.41
2019-05-05T12:14:58.137Z,19.41
2019-05-05T12:17:34.654Z,19.40
2019-05-05T12:20:01.432Z,19.41
2019-05-05T12:22:28.212Z,19.39
2019-05-05T12:24:55.016Z,19.40
2019-05-05T12:27:26.379Z,19.40
2019-05-05T12:29:54.573Z,19.41
2019-05-05T12:32:21.601Z,19.41
2019-05-05T12:34:48.378Z,19.40
2019-05-05T12:37:15.136Z,19.40
2019-05-05T12:39:44.109Z,19.41
2019-05-05T12:42:10.446Z,19.42
2019-05-05T12:44:39.118Z,19.41
2019-05-05T12:47:07.530Z,19.41
2019-05-05T12:49:34.337Z,19.42
2019-05-05T12:52:01.100Z,19.42
2019-05-05T12:54:27.977Z,19.42
2019-05-05T12:56:54.826Z,19.42
2019-05-05T12:59:24.899Z,19.52
2019-05-05T13:01:51.829Z,19.59
2019-05-05T13:04:18.665Z,19.56
2019-05-05T13:06:45.449Z,19.54
2019-05-05T13:09:13.629Z,19.53
2019-05-05T13:11:40.503Z,19.52
2019-05-05T13:14:07.576Z,19.49
2019-05-05T13:16:34.370Z,19.48
2019-05-05T13:19:04.397Z,19.49
2019-05-05T13:21:49.373Z,19.48
2019-05-05T13:24:23.875Z,19.48
2019-05-05T13:26:54.054Z,19.48
2019-05-05T13:29:21.038Z,19.48
2019-05-05T13:31:47.866Z,19.48
2019-05-05T13:34:14.723Z,19.47
2019-05-05T13:36:41.480Z,19.48
2019-05-05T13:39:08.327Z,19.48
2019-05-05T13:41:35.094Z,19.51
2019-05-05T13:44:04.475Z,19.50
2019-05-05T13:46:38.680Z,19.52
2019-05-05T13:49:24.040Z,19.52
2019-05-05T13:51:50.939Z,19.49
2019-05-05T13:54:17.754Z,19.49
2019-05-05T13:56:44.591Z,19.49
2019-05-05T13:59:11.388Z,19.48
2019-05-05T14:01:38.165Z,19.47
2019-05-05T14:04:05.021Z,19.47
2019-05-05T14:06:33.483Z,19.46
2019-05-05T14:09:00.351Z,19.45
2019-05-05T14:11:27.130Z,19.45
2019-05-05T14:13:53.906Z,19.45
2019-05-05T14:16:20.772Z,19.44
2019-05-05T14:18:47.601Z,19.44
2019-05-05T14:21:14.394Z,19.44
2019-05-05T14:23:59.162Z,19.45
2019-05-05T14:26:28.344Z,19.45
2019-05-05T14:28:54.441Z,19.45
2019-05-05T14:31:24.458Z,19.44
2019-05-05T14:33:55.886Z,19.44
2019-05-05T14:36:27.070Z,19.43
2019-05-05T14:38:55.573Z,19.44
2019-05-05T14:41:22.417Z,19.45
2019-05-05T14:43:49.217Z,19.43
2019-05-05T14:46:16.081Z,19.44
2019-05-05T14:48:44.094Z,19.44
2019-05-05T14:51:11.068Z,19.43
2019-05-05T14:53:37.934Z,19.44
2019-05-05T14:56:04.791Z,19.44
2019-05-05T14:58:31.560Z,19.45
2019-05-05T15:00:58.342Z,19.44
2019-05-05T15:03:25.166Z,19.44
2019-05-05T15:05:56.613Z,19.44
2019-05-05T15:08:41.724Z,19.44
2019-05-05T15:11:10.143Z,19.44
2019-05-05T15:13:36.924Z,19.41
2019-05-05T15:16:04.135Z,19.43
2019-05-05T15:18:31.270Z,19.42
2019-05-05T15:20:58.059Z,19.42
2019-05-05T15:23:24.863Z,19.42
2019-05-05T15:25:53.821Z,19.42
2019-05-05T15:28:20.126Z,19.43
2019-05-05T15:30:46.969Z,19.43
2019-05-05T15:33:13.909Z,19.42
2019-05-05T15:35:43.621Z,19.41
2019-05-05T15:38:09.240Z,19.41
2019-05-05T15:40:36.014Z,19.41
2019-05-05T15:43:03.820Z,19.40
2019-05-05T15:45:30.908Z,19.41
2019-05-05T15:47:57.685Z,19.32
2019-05-05T15:50:24.452Z,19.40
2019-05-05T15:52:51.233Z,19.46
2019-05-05T15:55:18.023Z,19.50
2019-05-05T15:57:44.793Z,19.51
2019-05-05T16:00:11.571Z,19.50
2019-05-05T16:02:38.346Z,19.50
2019-05-05T16:05:05.124Z,19.49
2019-05-05T16:07:33.368Z,19.47
2019-05-05T16:10:00.258Z,19.45
2019-05-05T16:12:33.798Z,19.44
2019-05-05T16:14:57.223Z,19.43
2019-05-05T16:17:28.792Z,19.43
2019-05-05T16:19:59.898Z,19.44
2019-05-05T16:22:31.012Z,19.43
2019-05-05T16:25:10.283Z,19.44
2019-05-05T16:27:37.094Z,19.43
2019-05-05T16:30:05.750Z,19.43
2019-05-05T16:32:33.411Z,19.43
2019-05-05T16:35:00.260Z,19.44
2019-05-05T16:37:27.021Z,19.43
2019-05-05T16:39:54.315Z,19.44
2019-05-05T16:42:21.191Z,19.44
2019-05-05T16:44:47.996Z,19.44
2019-05-05T16:47:15.854Z,19.44
2019-05-05T16:49:44.499Z,19.44
2019-05-05T16:52:14.590Z,19.44
2019-05-05T16:54:43.108Z,19.44
2019-05-05T16:57:09.896Z,19.43
2019-05-05T16:59:36.660Z,19.44
2019-05-05T17:02:04.779Z,19.43
2019-05-05T17:04:31.792Z,19.43
2019-05-05T17:06:58.570Z,19.44
2019-05-05T17:09:25.364Z,19.42
2019-05-05T17:12:10.156Z,19.42
2019-05-05T17:14:38.552Z,19.43
2019-05-05T17:17:09.926Z,19.43
2019-05-05T17:19:38.329Z,19.43
2019-05-05T17:22:24.921Z,19.43
2019-05-05T17:24:53.493Z,19.44
2019-05-05T17:27:20.442Z,19.43
2019-05-05T17:29:47.217Z,19.44
2019-05-05T17:32:14.015Z,19.44
2019-05-05T17:34:40.848Z,19.44
2019-05-05T17:37:07.638Z,19.44
2019-05-05T17:39:36.055Z,19.43
2019-05-05T17:42:16.652Z,19.44
2019-05-05T17:45:03.578Z,19.44
2019-05-05T17:47:40.874Z,19.44
2019-05-05T17:50:14.321Z,19.45
2019-05-05T17:52:45.223Z,19.44
2019-05-05T17:55:28.460Z,19.45
2019-05-05T17:58:01.694Z,19.45
2019-05-05T18:00:24.374Z,19.44
2019-05-05T18:02:51.157Z,19.44
2019-05-05T18:05:19.620Z,19.44
2019-05-05T18:07:47.852Z,19.47
2019-05-05T18:10:16.256Z,19.44
2019-05-05T18:12:54.041Z,19.43
2019-05-05T18:15:39.232Z,19.42
2019-05-05T18:18:06.024Z,19.43
2019-05-05T18:20:34.095Z,19.42
2019-05-05T18:23:01.070Z,19.42
2019-05-05T18:25:27.832Z,19.42
2019-05-05T18:27:54.647Z,19.41
2019-05-05T18:30:21.421Z,19.42
2019-05-05T18:32:48.184Z,19.42
2019-05-05T18:35:14.965Z,19.42
2019-05-05T18:37:43.531Z,19.42
2019-05-05T18:40:10.484Z,19.41
2019-05-05T18:42:37.286Z,19.41
2019-05-05T18:45:05.693Z,19.41
2019-05-05T18:47:34.055Z,19.41
2019-05-05T18:50:00.992Z,19.41
2019-05-05T18:52:27.759Z,19.40
2019-05-05T18:54:54.696Z,19.41
2019-05-05T18:57:21.840Z,19.40
2019-05-05T18:59:48.641Z,19.40
2019-05-05T19:02:29.097Z,19.40
2019-05-05T19:05:00.242Z,19.39
2019-05-05T19:07:53.020Z,19.41
2019-05-05T19:10:09.048Z,19.41
2019-05-05T19:12:35.865Z,19.40
2019-05-05T19:15:04.353Z,19.40
2019-05-05T19:17:31.288Z,19.39
2019-05-05T19:19:59.693Z,19.40
2019-05-05T19:22:26.488Z,19.38
2019-05-05T19:24:54.873Z,19.40
2019-05-05T19:27:23.892Z,19.41
2019-05-05T19:29:50.227Z,19.41
2019-05-05T19:32:17.223Z,19.41
2019-05-05T19:34:44.070Z,19.45
2019-05-05T19:37:13.800Z,19.47
2019-05-05T19:39:39.467Z,18.74
2019-05-05T19:42:06.298Z,19.44
2019-05-05T19:44:33.852Z,19.45
2019-05-05T19:47:08.546Z,19.45
2019-05-05T19:49:35.525Z,19.45
2019-05-05T19:52:05.672Z,19.44
2019-05-05T19:54:30.940Z,19.44
2019-05-05T19:56:57.899Z,19.44
2019-05-05T19:59:24.780Z,19.44
2019-05-05T20:01:53.876Z,19.44
2019-05-05T20:04:21.583Z,19.45
2019-05-05T20:06:48.423Z,19.44
2019-05-05T20:09:15.239Z,19.44
2019-05-05T20:11:43.792Z,19.45
2019-05-05T20:14:10.660Z,19.45
2019-05-05T20:16:55.304Z,19.45
2019-05-05T20:19:22.196Z,19.46
2019-05-05T20:21:49.102Z,18.73
2019-05-05T20:24:15.951Z,19.45
2019-05-05T20:26:42.822Z,19.46
2019-05-05T20:29:14.116Z,19.45
2019-05-05T20:31:38.516Z,19.45
2019-05-05T20:34:10.100Z,19.46
2019-05-05T20:36:38.753Z,19.45
2019-05-05T20:39:07.025Z,19.45
2019-05-05T20:41:33.959Z,19.47
2019-05-05T20:44:00.816Z,19.45
2019-05-05T20:46:27.636Z,19.46
2019-05-05T20:48:54.651Z,19.45
2019-05-05T20:51:21.734Z,19.47
2019-05-05T20:53:49.363Z,19.46
2019-05-05T20:56:16.425Z,19.45
2019-05-05T20:58:44.130Z,19.46
2019-05-05T21:01:11.136Z,19.31
2019-05-05T21:03:37.926Z,19.47
2019-05-05T21:06:04.734Z,19.45
2019-05-05T21:08:31.510Z,19.47
2019-05-05T21:10:58.321Z,19.46
2019-05-05T21:13:25.238Z,19.46
2019-05-05T21:15:53.876Z,19.45
2019-05-05T21:18:20.560Z,19.46
2019-05-05T21:20:47.360Z,19.45
2019-05-05T21:23:25.035Z,19.46
2019-05-05T21:25:54.056Z,19.46
2019-05-05T21:28:20.938Z,19.45
2019-05-05T21:30:47.787Z,19.46
2019-05-05T21:33:14.718Z,19.47
2019-05-05T21:35:43.944Z,19.46
2019-05-05T21:38:10.226Z,19.47
2019-05-05T21:40:37.109Z,19.46
2019-05-05T21:43:04.993Z,19.46
2019-05-05T21:45:32.082Z,19.46
2019-05-05T21:47:59.804Z,19.47
2019-05-05T21:50:31.167Z,19.47
2019-05-05T21:53:05.766Z,19.46
2019-05-05T21:55:49.340Z,19.45
2019-05-05T21:58:22.748Z,19.46
2019-05-05T22:00:51.037Z,19.45
2019-05-05T22:03:37.142Z,19.45
2019-05-05T22:06:03.971Z,19.47
2019-05-05T22:08:30.808Z,19.46
2019-05-05T22:10:57.635Z,19.45
2019-05-05T22:13:24.575Z,19.47
2019-05-05T22:15:51.456Z,19.45
2019-05-05T22:18:18.243Z,19.46
2019-05-05T22:20:46.705Z,19.46
2019-05-05T22:23:14.763Z,19.45
2019-05-05T22:25:43.681Z,19.46
2019-05-05T22:28:10.190Z,19.45
2019-05-05T22:30:37.059Z,19.45
2019-05-05T22:33:05.966Z,19.45
2019-05-05T22:35:34.348Z,19.47
2019-05-05T22:38:01.304Z,19.46
2019-05-05T22:40:28.187Z,19.46
2019-05-05T22:42:55.025Z,19.46
2019-05-05T22:45:23.613Z,19.46
2019-05-05T22:47:50.413Z,19.47
2019-05-05T22:50:17.239Z,19.46
2019-05-05T22:52:44.668Z,19.46
2019-05-05T22:55:13.790Z,19.45
2019-05-05T22:57:40.216Z,19.46
2019-05-05T23:00:07.292Z,19.45
2019-05-05T23:02:45.046Z,19.45
2019-05-05T23:05:28.180Z,19.46
2019-05-05T23:07:54.950Z,19.46
2019-05-05T23:10:23.506Z,19.45
2019-05-05T23:12:50.343Z,19.45
2019-05-05T23:15:17.259Z,19.46
2019-05-05T23:17:45.761Z,19.45
2019-05-05T23:20:24.640Z,19.45
2019-05-05T23:22:55.986Z,19.45
2019-05-05T23:25:34.247Z,19.45
2019-05-05T23:28:01.081Z,19.45
2019-05-05T23:30:38.669Z,19.46
2019-05-05T23:32:56.436Z,19.45
2019-05-05T23:35:23.894Z,19.45
2019-05-05T23:37:50.877Z,19.45
2019-05-05T23:40:17.672Z,19.44
2019-05-05T23:42:44.480Z,19.45
2019-05-05T23:45:11.345Z,19.45
2019-05-05T23:47:38.169Z,19.44
2019-05-05T23:50:05.052Z,19.45
2019-05-05T23:52:32.130Z,19.44
2019-05-05T23:54:58.986Z,19.44
2019-05-05T23:57:25.776Z,19.44
2019-05-05T23:59:53.766Z,19.44
